Time;durP1;ratioP1;P1;durP2;ratioP2;P2;SDS_P1;SDS_P2;PMS_P1;PMS_P2;Temp;Humidity;BMP_temperature;BMP_pressure;BME280_temperature;BME280_humidity;BME280_pressure;Samples;Min_cycle;Max_cycle;Signal;HPM_P1;HPM_P2
2023/01/21 00:00:40;;;;;;;8.40;3.97;;;;;;;;;;4994639;28;20635;-56
2023/01/21 00:03:19;;;;;;;8.43;3.43;;;;;;;;;;4995907;28;20187;-56
2023/01/21 00:05:46;;;;;;;7.43;3.17;;;;;;;;;;4995411;28;20561;-56
2023/01/21 00:08:13;;;;;;;7.03;3.80;;;;;;;;;;4995598;28;20206;-57
2023/01/21 00:10:40;;;;;;;6.23;3.33;;;;;;;;;;4995480;28;20206;-56
2023/01/21 00:13:07;;;;;;;6.97;3.70;;;;;;;;;;4995515;28;20206;-57
2023/01/21 00:15:35;;;;;;;7.80;3.63;;;;;;;;;;4995484;28;20206;-57
2023/01/21 00:18:03;;;;;;;6.03;2.87;;;;;;;;;;4995193;28;20651;-58
2023/01/21 00:20:31;;;;;;;4.93;2.57;;;;;;;;;;4995356;28;20217;-57
2023/01/21 00:22:58;;;;;;;6.90;2.53;;;;;;;;;;4995845;28;20526;-57
2023/01/21 00:25:25;;;;;;;5.20;2.40;;;;;;;;;;4995454;28;20205;-58
2023/01/21 00:27:53;;;;;;;5.93;3.17;;;;;;;;;;4995045;28;20260;-58
2023/01/21 00:30:21;;;;;;;5.97;2.77;;;;;;;;;;4995216;28;20625;-58
2023/01/21 00:32:48;;;;;;;6.57;3.63;;;;;;;;;;4995743;28;20220;-58
2023/01/21 00:35:15;;;;;;;5.40;2.33;;;;;;;;;;4995388;28;20569;-57
2023/01/21 00:37:42;;;;;;;5.33;2.60;;;;;;;;;;4995131;28;20206;-58
2023/01/21 00:40:10;;;;;;;6.47;2.60;;;;;;;;;;4995389;28;20238;-58
2023/01/21 00:42:37;;;;;;;3.67;1.93;;;;;;;;;;4995449;28;20280;-57
2023/01/21 00:45:05;;;;;;;4.10;2.00;;;;;;;;;;4995063;28;20238;-58
2023/01/21 00:47:32;;;;;;;2.73;1.80;;;;;;;;;;4995405;28;20586;-58
2023/01/21 00:49:59;;;;;;;3.30;1.90;;;;;;;;;;5011247;28;20666;-58
2023/01/21 00:52:26;;;;;;;2.60;1.50;;;;;;;;;;5014715;28;20205;-58
2023/01/21 00:54:53;;;;;;;2.97;1.60;;;;;;;;;;5014388;28;20638;-59
2023/01/21 00:57:21;;;;;;;1.97;1.20;;;;;;;;;;5014816;28;20205;-59
2023/01/21 00:59:48;;;;;;;5.43;1.33;;;;;;;;;;5014342;28;20205;-59
2023/01/21 01:02:15;;;;;;;1.20;0.97;;;;;;;;;;5014864;28;20275;-59
2023/01/21 01:04:42;;;;;;;1.47;1.00;;;;;;;;;;5014575;28;20205;-60
2023/01/21 01:07:10;;;;;;;3.10;0.90;;;;;;;;;;5014645;28;20205;-62
2023/01/21 01:09:37;;;;;;;1.40;0.77;;;;;;;;;;5014257;28;20217;-60
2023/01/21 01:12:05;;;;;;;1.10;0.80;;;;;;;;;;5015698;28;20267;-60
2023/01/21 01:14:32;;;;;;;1.00;0.70;;;;;;;;;;5018120;28;20202;-60
2023/01/21 01:16:59;;;;;;;0.93;0.80;;;;;;;;;;5018439;28;20220;-60
2023/01/21 01:19:26;;;;;;;0.73;0.63;;;;;;;;;;5018297;28;20205;-61
2023/01/21 01:21:54;;;;;;;0.90;0.70;;;;;;;;;;5017801;28;20205;-61
2023/01/21 01:24:21;;;;;;;1.13;0.80;;;;;;;;;;5018121;28;20205;-62
2023/01/21 01:26:48;;;;;;;0.67;0.60;;;;;;;;;;5018133;28;20212;-62
2023/01/21 01:29:15;;;;;;;1.10;0.70;;;;;;;;;;5017521;28;20248;-62
2023/01/21 01:31:43;;;;;;;1.73;0.70;;;;;;;;;;5017968;28;20291;-61
2023/01/21 01:34:10;;;;;;;1.90;0.80;;;;;;;;;;5017744;28;20293;-62
2023/01/21 01:36:37;;;;;;;2.73;0.97;;;;;;;;;;5017737;28;20218;-62
2023/01/21 01:39:04;;;;;;;4.47;0.80;;;;;;;;;;5017595;28;20245;-61
2023/01/21 01:41:33;;;;;;;3.43;0.80;;;;;;;;;;5015856;28;20205;-61
2023/01/21 01:44:25;;;;;;;1.30;0.90;;;;;;;;;;5008472;28;20644;-61
2023/01/21 01:46:55;;;;;;;3.40;0.93;;;;;;;;;;4998226;28;20213;-62
2023/01/21 01:49:22;;;;;;;2.30;0.90;;;;;;;;;;4996694;28;20313;-61
2023/01/21 01:51:57;;;;;;;2.53;1.00;;;;;;;;;;4998508;28;20206;-61
2023/01/21 01:54:37;;;;;;;2.70;1.23;;;;;;;;;;4998021;28;20212;-61
2023/01/21 01:57:06;;;;;;;2.27;1.30;;;;;;;;;;4996897;28;20272;-60
2023/01/21 01:59:33;;;;;;;3.10;1.63;;;;;;;;;;4997706;28;20260;-60
2023/01/21 02:02:12;;;;;;;5.97;1.70;;;;;;;;;;4997704;28;20260;-60
2023/01/21 02:04:54;;;;;;;3.53;1.60;;;;;;;;;;4996756;28;20206;-60
2023/01/21 02:07:23;;;;;;;2.60;1.63;;;;;;;;;;4996913;28;20202;-60
2023/01/21 02:09:52;;;;;;;2.30;1.60;;;;;;;;;;4996996;28;20226;-60
2023/01/21 02:12:20;;;;;;;5.17;1.80;;;;;;;;;;4997233;28;20650;-60
2023/01/21 02:14:47;;;;;;;3.60;1.60;;;;;;;;;;4997189;28;20639;-60
2023/01/21 02:17:36;;;;;;;2.93;1.80;;;;;;;;;;4997108;28;20210;-60
2023/01/21 02:20:09;;;;;;;3.93;2.20;;;;;;;;;;4997231;28;20593;-60
2023/01/21 02:22:48;;;;;;;3.67;1.83;;;;;;;;;;4997098;28;20206;-60
2023/01/21 02:25:45;;;;;;;3.87;2.03;;;;;;;;;;4996313;28;20198;-60
2023/01/21 02:28:43;;;;;;;3.07;2.13;;;;;;;;;;4997002;28;20280;-60
2023/01/21 02:31:59;;;;;;;4.73;2.30;;;;;;;;;;4997590;28;20273;-60
2023/01/21 02:34:30;;;;;;;3.40;1.67;;;;;;;;;;4995403;28;20213;-60
2023/01/21 02:37:13;;;;;;;5.37;2.80;;;;;;;;;;4997009;28;20512;-60
2023/01/21 02:39:59;;;;;;;5.07;2.57;;;;;;;;;;4996851;28;20241;-60
2023/01/21 02:42:44;;;;;;;5.73;2.13;;;;;;;;;;4996697;28;20285;-60
2023/01/21 02:45:31;;;;;;;6.43;2.47;;;;;;;;;;4996069;28;20205;-61
2023/01/21 02:48:19;;;;;;;5.47;2.40;;;;;;;;;;4997546;28;20202;-61
2023/01/21 02:50:49;;;;;;;4.93;2.17;;;;;;;;;;4995877;28;20240;-61
2023/01/21 02:53:26;;;;;;;4.50;2.40;;;;;;;;;;4995743;28;20236;-62
2023/01/21 02:55:56;;;;;;;5.97;2.17;;;;;;;;;;4996438;28;20584;-62
2023/01/21 02:58:27;;;;;;;4.27;2.37;;;;;;;;;;4996930;28;20666;-62
2023/01/21 03:01:10;;;;;;;5.53;2.80;;;;;;;;;;4996133;28;20206;-63
2023/01/21 03:04:02;;;;;;;5.47;2.77;;;;;;;;;;4996620;28;20249;-63
2023/01/21 03:06:51;;;;;;;6.17;3.60;;;;;;;;;;4996251;28;20198;-64
2023/01/21 03:09:24;;;;;;;7.50;2.63;;;;;;;;;;4996555;28;20309;-65
2023/01/21 03:12:08;;;;;;;5.97;2.57;;;;;;;;;;4996194;28;20217;-66
2023/01/21 03:17:58;;;;;;;7.60;3.40;;;;;;;;;;4996334;28;20205;-67
2023/01/21 03:20:35;;;;;;;9.77;3.77;;;;;;;;;;4996320;28;20230;-68
2023/01/21 03:23:06;;;;;;;7.73;3.73;;;;;;;;;;4995931;28;20213;-67
2023/01/21 03:25:34;;;;;;;7.70;3.27;;;;;;;;;;4995764;28;20280;-68
2023/01/21 03:28:05;;;;;;;7.13;3.50;;;;;;;;;;4995244;28;20202;-68
2023/01/21 03:30:33;;;;;;;8.07;3.63;;;;;;;;;;4995286;28;20217;-67
2023/01/21 03:33:01;;;;;;;7.47;3.33;;;;;;;;;;4995119;28;20206;-68
2023/01/21 03:35:32;;;;;;;10.10;4.23;;;;;;;;;;4996045;28;20210;-67
2023/01/21 03:38:08;;;;;;;9.17;4.50;;;;;;;;;;4995943;28;20268;-67
2023/01/21 03:40:40;;;;;;;10.93;4.13;;;;;;;;;;4994874;28;20241;-67
2023/01/21 03:43:08;;;;;;;11.97;4.47;;;;;;;;;;4995057;28;20567;-67
2023/01/21 03:45:59;;;;;;;10.40;4.33;;;;;;;;;;4995789;28;20210;-68
2023/01/21 03:48:46;;;;;;;8.57;3.60;;;;;;;;;;4994814;28;20205;-68
2023/01/21 03:51:21;;;;;;;12.93;5.00;;;;;;;;;;4996087;28;20233;-69
2023/01/21 03:53:56;;;;;;;14.93;5.33;;;;;;;;;;4995774;28;20198;-70
2023/01/21 03:56:24;;;;;;;16.10;5.70;;;;;;;;;;4995822;28;20208;-71
2023/01/21 03:58:52;;;;;;;15.77;6.73;;;;;;;;;;5012868;28;20204;-71
2023/01/21 04:01:19;;;;;;;14.47;6.00;;;;;;;;;;5026347;28;20291;-71
2023/01/21 04:03:48;;;;;;;19.63;7.20;;;;;;;;;;5035228;28;20201;-71
2023/01/21 04:06:17;;;;;;;17.00;6.27;;;;;;;;;;5034834;28;20224;-72
2023/01/21 04:08:45;;;;;;;17.13;6.87;;;;;;;;;;5035010;28;20193;-73
2023/01/21 04:11:12;;;;;;;16.20;7.13;;;;;;;;;;5035039;28;20228;-72
2023/01/21 04:13:39;;;;;;;20.37;7.40;;;;;;;;;;5034841;28;20205;-72
2023/01/21 04:16:07;;;;;;;21.47;7.47;;;;;;;;;;5022688;28;20507;-70
2023/01/21 04:18:34;;;;;;;17.80;7.17;;;;;;;;;;5014803;28;20201;-70
2023/01/21 04:21:01;;;;;;;18.00;6.90;;;;;;;;;;5015088;28;20301;-69
2023/01/21 04:23:29;;;;;;;20.80;7.07;;;;;;;;;;5015117;28;20209;-68
2023/01/21 04:25:56;;;;;;;18.50;5.70;;;;;;;;;;5015530;28;20213;-68
2023/01/21 04:28:23;;;;;;;19.43;5.70;;;;;;;;;;5014777;28;20724;-69
2023/01/21 04:30:50;;;;;;;19.40;6.17;;;;;;;;;;5014360;28;20650;-67
2023/01/21 04:33:18;;;;;;;15.90;6.33;;;;;;;;;;5014392;28;20585;-68
2023/01/21 04:35:45;;;;;;;11.67;5.27;;;;;;;;;;5013316;28;20205;-66
2023/01/21 04:38:13;;;;;;;17.70;5.63;;;;;;;;;;5013012;28;20614;-68
2023/01/21 04:40:40;;;;;;;14.63;5.53;;;;;;;;;;5012628;28;20233;-66
2023/01/21 04:43:07;;;;;;;14.57;5.43;;;;;;;;;;5013051;28;20213;-65
2023/01/21 04:45:34;;;;;;;16.40;6.10;;;;;;;;;;5012803;28;20217;-65
2023/01/21 04:48:02;;;;;;;17.40;6.27;;;;;;;;;;5014802;28;20221;-64
2023/01/21 04:50:29;;;;;;;18.57;6.10;;;;;;;;;;5016377;28;20225;-64
2023/01/21 04:52:56;;;;;;;18.90;6.37;;;;;;;;;;5017647;28;20271;-64
2023/01/21 04:55:23;;;;;;;14.97;6.07;;;;;;;;;;5018566;28;20205;-63
2023/01/21 04:57:52;;;;;;;31.43;11.03;;;;;;;;;;5018504;28;20255;-63
2023/01/21 05:00:19;;;;;;;33.53;11.07;;;;;;;;;;5018539;28;20644;-63
2023/01/21 05:02:47;;;;;;;25.27;7.10;;;;;;;;;;5018359;28;20205;-63
2023/01/21 05:05:14;;;;;;;16.63;6.57;;;;;;;;;;5018044;28;20213;-63
2023/01/21 05:07:42;;;;;;;18.90;5.53;;;;;;;;;;5018168;28;20209;-62
2023/01/21 05:10:14;;;;;;;19.30;7.23;;;;;;;;;;5018348;28;20229;-62
2023/01/21 05:12:42;;;;;;;15.80;6.13;;;;;;;;;;5017954;28;20632;-62
2023/01/21 05:15:09;;;;;;;16.43;5.97;;;;;;;;;;5017846;28;20271;-62
2023/01/21 05:17:37;;;;;;;23.20;6.40;;;;;;;;;;5018160;28;20209;-63
2023/01/21 05:20:04;;;;;;;29.70;8.37;;;;;;;;;;5018241;28;20267;-62
2023/01/21 05:22:32;;;;;;;25.13;9.53;;;;;;;;;;5018470;28;20205;-62
2023/01/21 05:24:59;;;;;;;26.13;8.87;;;;;;;;;;5017990;28;20268;-61
2023/01/21 05:27:26;;;;;;;23.47;7.53;;;;;;;;;;5017876;28;20209;-61
2023/01/21 05:29:55;;;;;;;24.00;7.30;;;;;;;;;;5017631;28;20224;-61
2023/01/21 05:32:23;;;;;;;25.93;8.63;;;;;;;;;;5017617;28;20268;-61
2023/01/21 05:34:50;;;;;;;24.43;8.23;;;;;;;;;;5017751;28;20604;-62
2023/01/21 05:37:17;;;;;;;22.93;7.10;;;;;;;;;;5017638;28;20642;-61
2023/01/21 05:39:44;;;;;;;23.13;7.33;;;;;;;;;;5017253;28;20243;-61
2023/01/21 05:42:12;;;;;;;20.30;6.70;;;;;;;;;;5017691;28;20210;-62
2023/01/21 05:44:39;;;;;;;24.30;8.30;;;;;;;;;;5017284;28;20209;-62
2023/01/21 05:47:07;;;;;;;23.97;7.13;;;;;;;;;;5017785;28;20206;-62
2023/01/21 05:49:35;;;;;;;28.00;7.97;;;;;;;;;;5017509;28;20206;-62
2023/01/21 05:52:02;;;;;;;21.03;6.47;;;;;;;;;;5017532;28;20354;-61
2023/01/21 05:54:29;;;;;;;23.57;7.63;;;;;;;;;;5017078;28;20699;-62
2023/01/21 05:56:56;;;;;;;25.37;8.47;;;;;;;;;;5016950;28;20264;-62
2023/01/21 05:59:23;;;;;;;30.90;7.97;;;;;;;;;;5016169;28;20268;-63
2023/01/21 06:01:51;;;;;;;28.77;9.77;;;;;;;;;;5017051;28;20236;-63
2023/01/21 06:04:18;;;;;;;34.40;9.00;;;;;;;;;;5016885;28;20205;-63
2023/01/21 06:06:45;;;;;;;25.53;8.83;;;;;;;;;;5016940;28;20209;-62
2023/01/21 06:09:12;;;;;;;40.93;11.17;;;;;;;;;;5016680;28;20228;-63
2023/01/21 06:11:40;;;;;;;32.77;9.53;;;;;;;;;;5016518;28;20685;-63
2023/01/21 06:14:07;;;;;;;34.13;10.23;;;;;;;;;;5016850;28;20236;-63
2023/01/21 06:16:35;;;;;;;32.17;10.10;;;;;;;;;;5016468;28;20206;-63
2023/01/21 06:19:02;;;;;;;43.00;9.90;;;;;;;;;;5016567;28;20198;-64
2023/01/21 06:21:29;;;;;;;28.97;9.50;;;;;;;;;;5016621;28;20205;-64
2023/01/21 06:23:56;;;;;;;36.30;10.17;;;;;;;;;;5016496;28;20209;-64
2023/01/21 06:26:23;;;;;;;29.53;8.50;;;;;;;;;;5016382;28;20201;-64
2023/01/21 06:28:55;;;;;;;37.63;9.63;;;;;;;;;;5016601;28;20197;-64
2023/01/21 06:31:23;;;;;;;29.77;10.07;;;;;;;;;;5016395;28;20279;-64
2023/01/21 06:33:51;;;;;;;37.83;10.50;;;;;;;;;;5016336;28;20197;-65
2023/01/21 06:36:18;;;;;;;37.67;10.47;;;;;;;;;;5016172;28;20205;-65
2023/01/21 06:38:45;;;;;;;45.37;10.93;;;;;;;;;;5015884;28;20635;-64
2023/01/21 06:41:12;;;;;;;34.07;9.47;;;;;;;;;;5015952;28;20237;-65
2023/01/21 06:43:39;;;;;;;47.97;11.17;;;;;;;;;;5016044;28;20216;-65
2023/01/21 06:46:06;;;;;;;50.67;13.33;;;;;;;;;;5016259;28;20221;-65
2023/01/21 06:48:33;;;;;;;56.33;13.23;;;;;;;;;;5015997;28;20201;-66
2023/01/21 06:51:01;;;;;;;59.17;13.63;;;;;;;;;;5015692;28;20678;-66
2023/01/21 06:53:28;;;;;;;53.40;14.27;;;;;;;;;;5015980;28;20202;-66
2023/01/21 06:55:55;;;;;;;69.70;14.83;;;;;;;;;;5015798;28;20271;-66
2023/01/21 06:58:23;;;;;;;56.67;13.20;;;;;;;;;;5015681;28;20293;-66
2023/01/21 07:00:50;;;;;;;57.13;13.60;;;;;;;;;;5015980;28;20216;-66
2023/01/21 07:03:17;;;;;;;71.30;15.63;;;;;;;;;;5014682;28;20572;-66
2023/01/21 07:05:44;;;;;;;63.70;13.93;;;;;;;;;;5015969;28;20209;-66
2023/01/21 07:08:11;;;;;;;78.80;15.73;;;;;;;;;;5016165;28;20588;-65
2023/01/21 07:10:38;;;;;;;70.20;15.70;;;;;;;;;;5015401;28;20683;-65
2023/01/21 07:13:05;;;;;;;70.07;15.87;;;;;;;;;;5015823;28;20208;-65
2023/01/21 07:15:33;;;;;;;76.63;15.87;;;;;;;;;;5015851;28;20205;-65
2023/01/21 07:18:00;;;;;;;79.80;15.83;;;;;;;;;;5010949;28;20201;-65
2023/01/21 07:20:27;;;;;;;91.70;17.93;;;;;;;;;;5004561;28;20639;-65
2023/01/21 07:22:54;;;;;;;78.07;17.80;;;;;;;;;;4996359;28;20217;-66
2023/01/21 07:25:22;;;;;;;82.10;17.80;;;;;;;;;;4996094;28;20210;-65
2023/01/21 07:27:49;;;;;;;94.00;19.40;;;;;;;;;;4995688;28;20213;-64
2023/01/21 07:30:17;;;;;;;79.00;17.60;;;;;;;;;;4995662;28;20642;-64
2023/01/21 07:32:46;;;;;;;92.10;19.43;;;;;;;;;;5000182;28;20545;-65
2023/01/21 07:35:13;;;;;;;90.77;19.40;;;;;;;;;;5004404;28;20205;-64
2023/01/21 07:37:41;;;;;;;106.70;19.00;;;;;;;;;;4995755;28;20209;-64
2023/01/21 07:40:09;;;;;;;104.70;20.60;;;;;;;;;;4994613;28;20265;-64
2023/01/21 07:42:36;;;;;;;121.53;20.97;;;;;;;;;;4995828;28;20201;-64
2023/01/21 07:45:04;;;;;;;104.30;19.57;;;;;;;;;;5001904;28;20288;-63
2023/01/21 07:47:31;;;;;;;110.57;19.90;;;;;;;;;;5014533;28;20268;-63
2023/01/21 07:50:03;;;;;;;103.67;19.47;;;;;;;;;;5013885;28;20240;-63
2023/01/21 07:52:31;;;;;;;106.87;19.20;;;;;;;;;;5004674;28;20252;-62
2023/01/21 07:54:58;;;;;;;99.03;21.47;;;;;;;;;;5002499;28;20547;-64
2023/01/21 07:57:25;;;;;;;114.80;20.70;;;;;;;;;;5014943;28;20232;-64
2023/01/21 07:59:52;;;;;;;103.17;20.07;;;;;;;;;;5008353;28;20321;-62
2023/01/21 08:02:19;;;;;;;107.83;20.93;;;;;;;;;;5014269;28;20233;-62
2023/01/21 08:04:47;;;;;;;125.40;21.10;;;;;;;;;;5008688;28;20283;-64
2023/01/21 08:07:14;;;;;;;130.37;22.43;;;;;;;;;;5005550;28;20214;-64
2023/01/21 08:09:42;;;;;;;142.13;22.90;;;;;;;;;;5006402;28;20233;-64
2023/01/21 08:12:09;;;;;;;126.50;22.93;;;;;;;;;;5005372;28;20524;-64
2023/01/21 08:14:37;;;;;;;147.33;23.67;;;;;;;;;;5019813;28;20232;-64
2023/01/21 08:17:04;;;;;;;140.30;23.60;;;;;;;;;;5004065;28;20226;-63
2023/01/21 08:19:31;;;;;;;132.90;25.63;;;;;;;;;;5005121;28;20689;-64
2023/01/21 08:21:58;;;;;;;147.60;25.20;;;;;;;;;;5014163;28;20221;-66
2023/01/21 08:24:26;;;;;;;147.33;25.23;;;;;;;;;;5002962;28;20221;-63
2023/01/21 08:26:56;;;;;;;166.73;27.83;;;;;;;;;;5010481;28;20236;-65
2023/01/21 08:29:24;;;;;;;170.43;25.87;;;;;;;;;;5017609;28;20221;-63
2023/01/21 08:31:51;;;;;;;165.90;26.80;;;;;;;;;;5017802;28;20260;-63
2023/01/21 08:34:18;;;;;;;159.43;26.80;;;;;;;;;;5017029;28;20221;-64
2023/01/21 08:36:45;;;;;;;170.40;28.60;;;;;;;;;;5007739;28;20248;-61
2023/01/21 08:39:14;;;;;;;175.23;29.47;;;;;;;;;;5009552;28;20237;-62
2023/01/21 08:41:43;;;;;;;187.20;30.20;;;;;;;;;;5014085;28;20564;-65
2023/01/21 08:44:10;;;;;;;200.70;30.90;;;;;;;;;;5011858;28;20236;-61
2023/01/21 08:46:37;;;;;;;208.83;30.60;;;;;;;;;;5017739;28;20229;-62
2023/01/21 08:49:05;;;;;;;186.03;32.73;;;;;;;;;;5018071;28;20225;-62
2023/01/21 08:51:32;;;;;;;166.50;32.97;;;;;;;;;;5017701;28;20573;-61
2023/01/21 08:53:59;;;;;;;231.70;32.77;;;;;;;;;;5018029;28;20565;-61
2023/01/21 08:56:27;;;;;;;230.53;33.17;;;;;;;;;;5017792;28;20225;-61
2023/01/21 08:58:57;;;;;;;221.20;34.73;;;;;;;;;;5017704;28;20233;-61
2023/01/21 09:01:25;;;;;;;204.83;34.93;;;;;;;;;;5003977;28;20555;-61
2023/01/21 09:03:57;;;;;;;232.57;35.17;;;;;;;;;;5017740;28;20290;-61
2023/01/21 09:06:26;;;;;;;249.47;36.33;;;;;;;;;;5017257;28;20229;-63
2023/01/21 09:08:54;;;;;;;227.17;37.10;;;;;;;;;;5017822;28;20225;-60
2023/01/21 09:11:21;;;;;;;260.43;38.47;;;;;;;;;;5002859;28;20244;-61
2023/01/21 09:13:48;;;;;;;234.07;37.17;;;;;;;;;;5017317;28;20233;-59
2023/01/21 09:16:19;;;;;;;278.57;39.33;;;;;;;;;;5017168;28;20577;-62
2023/01/21 09:18:49;;;;;;;244.67;37.20;;;;;;;;;;5016929;28;20578;-63
2023/01/21 09:21:16;;;;;;;224.67;37.13;;;;;;;;;;5017145;28;20262;-63
2023/01/21 09:23:43;;;;;;;262.27;38.70;;;;;;;;;;5016072;28;20229;-62
2023/01/21 09:26:19;;;;;;;257.00;40.17;;;;;;;;;;5000273;28;20312;-63
2023/01/21 09:28:54;;;;;;;278.73;39.03;;;;;;;;;;5016881;28;20233;-61
2023/01/21 09:31:23;;;;;;;254.73;38.93;;;;;;;;;;4998364;28;20237;-63
2023/01/21 09:33:55;;;;;;;285.17;41.63;;;;;;;;;;5006080;28;20232;-59
2023/01/21 09:36:25;;;;;;;242.67;39.47;;;;;;;;;;5030518;28;20240;-62
2023/01/21 09:38:52;;;;;;;253.40;39.23;;;;;;;;;;5015378;28;20549;-61
2023/01/21 09:41:38;;;;;;;254.23;40.57;;;;;;;;;;5016500;28;20697;-59
2023/01/21 09:44:23;;;;;;;268.97;42.50;;;;;;;;;;5016214;28;20235;-59
2023/01/21 09:47:02;;;;;;;254.03;39.87;;;;;;;;;;5016448;28;20245;-58
2023/01/21 09:49:52;;;;;;;277.93;40.27;;;;;;;;;;5015325;28;20685;-58
2023/01/21 09:52:28;;;;;;;274.70;42.60;;;;;;;;;;5015557;28;20248;-51
2023/01/21 09:54:56;;;;;;;294.30;42.03;;;;;;;;;;5016512;28;20229;-57
2023/01/21 09:57:57;;;;;;;307.93;44.87;;;;;;;;;;5014855;28;20237;-63
2023/01/21 10:01:05;;;;;;;286.63;42.40;;;;;;;;;;5015742;28;20237;-60
2023/01/21 10:03:49;;;;;;;291.93;42.97;;;;;;;;;;4994200;28;20226;-62
2023/01/21 10:06:44;;;;;;;277.47;44.17;;;;;;;;;;5010519;28;20694;-56
2023/01/21 10:09:24;;;;;;;314.37;45.23;;;;;;;;;;5015372;28;20229;-56
2023/01/21 10:12:11;;;;;;;301.63;45.87;;;;;;;;;;5016439;28;20233;-58
2023/01/21 10:14:47;;;;;;;298.77;44.27;;;;;;;;;;4994881;28;20222;-57
2023/01/21 10:17:21;;;;;;;319.77;47.50;;;;;;;;;;5004664;28;20232;-55
2023/01/21 10:20:13;;;;;;;317.67;48.07;;;;;;;;;;5014119;28;20300;-56
2023/01/21 10:22:47;;;;;;;346.63;47.13;;;;;;;;;;5015491;28;20231;-58
2023/01/21 10:25:24;;;;;;;322.70;46.57;;;;;;;;;;5020367;28;20586;-59
2023/01/21 10:27:52;;;;;;;342.83;48.77;;;;;;;;;;5014725;28;20661;-58
2023/01/21 10:30:26;;;;;;;332.10;49.33;;;;;;;;;;5022081;28;20601;-58
2023/01/21 10:32:54;;;;;;;364.47;47.77;;;;;;;;;;5014944;28;20233;-59
2023/01/21 10:35:38;;;;;;;353.03;51.43;;;;;;;;;;5015230;28;20669;-61
2023/01/21 10:38:10;;;;;;;355.60;50.20;;;;;;;;;;5036498;28;20229;-60
2023/01/21 10:40:44;;;;;;;362.70;51.47;;;;;;;;;;5015052;28;20737;-59
2023/01/21 10:43:39;;;;;;;360.03;50.80;;;;;;;;;;5015112;28;20312;-58
2023/01/21 10:46:14;;;;;;;405.97;51.20;;;;;;;;;;5002379;28;20222;-59
2023/01/21 10:48:54;;;;;;;370.13;53.33;;;;;;;;;;5012208;28;20233;-60
2023/01/21 10:51:32;;;;;;;402.03;54.77;;;;;;;;;;5031016;28;20658;-59
2023/01/21 10:54:14;;;;;;;370.60;53.73;;;;;;;;;;5031026;28;20256;-59
2023/01/21 10:56:54;;;;;;;401.73;52.90;;;;;;;;;;5013954;28;20997;-60
2023/01/21 10:59:23;;;;;;;371.67;52.57;;;;;;;;;;5013472;28;20221;-59
2023/01/21 11:02:03;;;;;;;409.00;54.33;;;;;;;;;;5014818;28;20256;-59
2023/01/21 11:04:30;;;;;;;374.63;51.60;;;;;;;;;;5015568;28;20233;-60
2023/01/21 11:07:03;;;;;;;403.47;52.90;;;;;;;;;;5016693;28;20658;-59
2023/01/21 11:09:33;;;;;;;407.50;57.43;;;;;;;;;;5021887;28;20241;-59
2023/01/21 11:12:01;;;;;;;368.50;54.03;;;;;;;;;;5014078;28;20229;-59
2023/01/21 11:14:28;;;;;;;419.97;57.27;;;;;;;;;;5015057;28;20693;-59
2023/01/21 11:16:56;;;;;;;371.53;55.97;;;;;;;;;;5014829;28;20685;-60
2023/01/21 11:19:28;;;;;;;410.03;60.33;;;;;;;;;;5015315;28;20229;-58
2023/01/21 11:22:17;;;;;;;424.53;61.30;;;;;;;;;;5015498;28;20241;-53
2023/01/21 11:24:47;;;;;;;472.50;63.23;;;;;;;;;;5010917;28;20681;-58
2023/01/21 11:27:19;;;;;;;454.70;63.93;;;;;;;;;;5003694;28;20242;-58
2023/01/21 11:29:48;;;;;;;441.23;63.53;;;;;;;;;;5008682;28;20559;-59
2023/01/21 11:32:17;;;;;;;432.70;64.53;;;;;;;;;;5020582;28;20233;-60
2023/01/21 11:34:46;;;;;;;453.90;64.30;;;;;;;;;;5015131;28;20221;-57
2023/01/21 11:37:21;;;;;;;478.93;66.93;;;;;;;;;;5013873;28;20229;-59
2023/01/21 11:39:57;;;;;;;476.40;66.83;;;;;;;;;;5014839;28;20303;-56
2023/01/21 11:42:25;;;;;;;472.03;65.47;;;;;;;;;;5013811;28;20591;-58
2023/01/21 11:44:56;;;;;;;476.93;69.17;;;;;;;;;;5014697;28;20252;-57
2023/01/21 11:47:46;;;;;;;478.17;68.53;;;;;;;;;;5014710;28;20230;-57
2023/01/21 11:50:16;;;;;;;446.50;68.30;;;;;;;;;;5014125;28;20229;-60
2023/01/21 11:52:44;;;;;;;465.43;70.00;;;;;;;;;;5019615;28;20538;-57
2023/01/21 11:55:18;;;;;;;468.07;66.97;;;;;;;;;;5018580;28;20229;-61
2023/01/21 11:57:51;;;;;;;442.63;67.63;;;;;;;;;;5011436;28;20575;-59
2023/01/21 12:00:20;;;;;;;471.00;71.00;;;;;;;;;;5012352;28;20225;-59
2023/01/21 12:02:55;;;;;;;492.57;70.67;;;;;;;;;;5012487;28;20249;-59
2023/01/21 12:05:33;;;;;;;458.50;68.23;;;;;;;;;;5010242;28;20228;-59
2023/01/21 12:08:04;;;;;;;437.73;67.73;;;;;;;;;;5013379;28;20233;-59
2023/01/21 12:10:42;;;;;;;452.73;70.00;;;;;;;;;;5012676;28;20249;-60
2023/01/21 12:13:09;;;;;;;452.37;72.07;;;;;;;;;;5012038;28;20364;-58
2023/01/21 12:16:09;;;;;;;472.70;70.67;;;;;;;;;;5005961;28;20685;-60
2023/01/21 12:18:57;;;;;;;469.37;71.47;;;;;;;;;;4992566;28;20237;-59
2023/01/21 12:21:49;;;;;;;501.97;73.07;;;;;;;;;;4993206;28;20701;-62
2023/01/21 12:24:44;;;;;;;481.43;71.47;;;;;;;;;;4993435;28;20242;-61
2023/01/21 12:27:20;;;;;;;490.63;73.17;;;;;;;;;;4993068;28;20241;-61
2023/01/21 12:30:06;;;;;;;539.33;73.87;;;;;;;;;;5003165;28;20295;-60
2023/01/21 12:32:47;;;;;;;497.50;69.60;;;;;;;;;;5028285;28;20252;-60
2023/01/21 12:35:37;;;;;;;515.00;70.93;;;;;;;;;;5012438;28;20229;-61
2023/01/21 12:38:10;;;;;;;557.57;74.37;;;;;;;;;;5011997;28;20229;-61
2023/01/21 12:41:14;;;;;;;504.40;71.90;;;;;;;;;;5007324;28;20561;-65
2023/01/21 12:43:54;;;;;;;503.07;72.70;;;;;;;;;;5009663;28;20323;-59
2023/01/21 12:46:33;;;;;;;525.20;72.53;;;;;;;;;;5006821;28;20221;-62
2023/01/21 12:49:18;;;;;;;503.13;74.00;;;;;;;;;;5022668;28;20222;-60
2023/01/21 12:51:50;;;;;;;526.10;73.30;;;;;;;;;;5020448;28;20221;-61
2023/01/21 12:54:26;;;;;;;511.60;71.90;;;;;;;;;;5017823;28;20305;-60
2023/01/21 12:57:19;;;;;;;526.60;75.83;;;;;;;;;;5019621;28;20225;-61
2023/01/21 12:59:53;;;;;;;511.83;71.73;;;;;;;;;;5019786;28;20256;-59
2023/01/21 13:02:29;;;;;;;491.73;70.57;;;;;;;;;;5002453;28;20351;-60
2023/01/21 13:05:05;;;;;;;519.70;70.47;;;;;;;;;;5006378;28;20279;-63
2023/01/21 13:07:36;;;;;;;534.43;69.90;;;;;;;;;;5013731;28;20221;-60
2023/01/21 13:10:19;;;;;;;501.37;69.53;;;;;;;;;;5032853;28;20225;-60
2023/01/21 13:12:53;;;;;;;496.90;68.97;;;;;;;;;;5015607;28;20225;-61
2023/01/21 13:15:24;;;;;;;514.07;70.17;;;;;;;;;;5018988;28;20224;-62
2023/01/21 13:17:57;;;;;;;538.40;73.87;;;;;;;;;;5032430;28;20231;-62
2023/01/21 13:20:25;;;;;;;505.37;68.27;;;;;;;;;;5014860;28;20272;-62
2023/01/21 13:23:05;;;;;;;524.47;71.43;;;;;;;;;;5016789;28;20221;-61
2023/01/21 13:26:10;;;;;;;530.33;68.87;;;;;;;;;;5017030;28;20236;-62
2023/01/21 13:28:50;;;;;;;518.90;66.43;;;;;;;;;;5015958;28;20689;-60
2023/01/21 13:31:55;;;;;;;497.80;69.83;;;;;;;;;;5015784;28;20877;-61
2023/01/21 13:34:37;;;;;;;545.80;74.93;;;;;;;;;;5015420;28;20802;-62
2023/01/21 13:37:13;;;;;;;503.43;66.83;;;;;;;;;;5016605;28;20221;-62
2023/01/21 13:39:56;;;;;;;562.27;67.80;;;;;;;;;;4996155;28;20706;-61
2023/01/21 13:42:35;;;;;;;520.70;65.73;;;;;;;;;;4997707;28;20573;-61
2023/01/21 13:45:12;;;;;;;508.57;65.13;;;;;;;;;;5016395;28;20236;-61
2023/01/21 13:47:46;;;;;;;539.00;66.73;;;;;;;;;;5022494;28;20229;-61
2023/01/21 13:50:36;;;;;;;513.03;65.20;;;;;;;;;;4996712;28;20229;-61
2023/01/21 13:53:18;;;;;;;530.97;69.03;;;;;;;;;;5002812;28;20590;-64
2023/01/21 13:56:03;;;;;;;511.87;67.60;;;;;;;;;;5021188;28;20227;-60
2023/01/21 13:58:59;;;;;;;532.57;67.57;;;;;;;;;;5021058;28;20229;-60
2023/01/21 14:02:00;;;;;;;509.90;66.80;;;;;;;;;;5016042;28;20241;-60
2023/01/21 14:04:30;;;;;;;542.90;67.63;;;;;;;;;;5005465;28;20549;-62
2023/01/21 14:07:29;;;;;;;477.87;63.57;;;;;;;;;;5016487;28;20225;-61
2023/01/21 14:10:07;;;;;;;490.23;64.57;;;;;;;;;;5013548;28;20324;-65
2023/01/21 14:12:37;;;;;;;491.77;62.83;;;;;;;;;;5015495;28;20260;-61
2023/01/21 14:15:22;;;;;;;486.70;64.37;;;;;;;;;;5033246;28;20301;-66
2023/01/21 14:18:11;;;;;;;458.03;60.47;;;;;;;;;;5034013;28;20287;-63
2023/01/21 14:21:02;;;;;;;505.10;64.30;;;;;;;;;;5032573;28;20308;-63
2023/01/21 14:23:42;;;;;;;525.93;64.60;;;;;;;;;;5033358;28;20240;-61
2023/01/21 14:26:29;;;;;;;477.20;62.33;;;;;;;;;;5033293;28;20228;-61
2023/01/21 14:29:15;;;;;;;504.03;61.27;;;;;;;;;;5033636;28;20263;-61
2023/01/21 14:31:50;;;;;;;478.30;61.50;;;;;;;;;;5014266;28;20240;-61
2023/01/21 14:34:23;;;;;;;480.10;61.07;;;;;;;;;;5011664;28;20224;-63
2023/01/21 14:37:06;;;;;;;519.97;60.67;;;;;;;;;;5013000;28;20243;-60
2023/01/21 14:40:13;;;;;;;483.30;61.17;;;;;;;;;;5012431;28;20717;-63
2023/01/21 14:42:42;;;;;;;529.47;62.83;;;;;;;;;;5012901;28;20340;-60
2023/01/21 14:45:11;;;;;;;503.77;60.63;;;;;;;;;;5012543;28;20242;-62
2023/01/21 14:47:50;;;;;;;507.97;58.97;;;;;;;;;;4995365;28;20702;-60
2023/01/21 14:50:44;;;;;;;486.20;60.27;;;;;;;;;;4995693;28;20290;-60
2023/01/21 14:53:17;;;;;;;512.90;60.20;;;;;;;;;;4996179;28;20312;-62
2023/01/21 14:55:45;;;;;;;482.93;60.17;;;;;;;;;;4995106;28;20244;-62